Terminal Aerodrome Forecast
Issued by NWS Milwaukee/Sullivan, WI

Current Version | Previous Version | Text Only | Print | Product List | Glossary On
Versions: 1 2 3 4 5 6 7 8 9 10 11 12 13 14 15 16 17 18 19 20 21 22 23 24 25 26 27 28 29 30 31 32 33 34 35 36 37 38 39 40 41 42 43 44 45 46 47 48 49 50
000
FTUS43 KMKX 242057 AAA
TAFMKE
TAF AMD
KMKE 242057Z 2421/2524 09010KT 6SM -SHRA OVC060
     FM250300 14009KT 5SM -SHRA OVC040
     FM250900 18008KT 5SM -SHRA OVC040
     FM251200 18012G24KT 5SM -SHRA OVC020
     FM251800 21018G29KT P6SM SCT030=

USA.gov is the U.S. government's official web portal to all federal, state and local government web resources and services.